This is the latest recevied weather packets stored in our database for station/object OH2EGI-2. If no packets are shown the sender has not sent any weather packets the latest 10 day(s).
| Time | Temp. | Humidity | Pressure | Rain* | Wind** | Luminosity | Snow |
|---|---|---|---|---|---|---|---|
| 1778073991 | 11.11° C | 42% | 1005.7 hPa | 0 mm | - | - | - |
| 1778073691 | 11.11° C | 42% | 1005.6 hPa | 0 mm | - | - | - |
| 1778073391 | 11.11° C | 41% | 1005.6 hPa | 0 mm | - | - | - |
| 1778073091 | 11.11° C | 41% | 1005.6 hPa | 0 mm | - | - | - |
| 1778072791 | 11.67° C | 41% | 1005.5 hPa | 0 mm | - | - | - |
| 1778072491 | 11.67° C | 40% | 1005.4 hPa | 0 mm | - | - | - |
| 1778072191 | 12.22° C | 40% | 1005.4 hPa | 0 mm | - | - | - |
| 1778071891 | 12.22° C | 39% | 1005.5 hPa | 0 mm | - | - | - |
| 1778071591 | 12.78° C | 38% | 1005.6 hPa | 0 mm | - | - | - |
| 1778071291 | 13.33° C | 36% | 1005.6 hPa | 0 mm | - | - | - |
| 1778070991 | 14.44° C | 35% | 1005.4 hPa | 0 mm | - | - | - |
| 1778070691 | 16.67° C | 33% | 1005.5 hPa | 0 mm | - | - | - |
| 1778070391 | 17.78° C | 31% | 1005.6 hPa | 0 mm | - | - | - |
| 1778070092 | 18.89° C | 31% | 1005.6 hPa | 0 mm | - | - | - |
| 1778069792 | 18.89° C | 31% | 1005.6 hPa | 0 mm | - | - | - |
| 1778069492 | 19.44° C | 31% | 1005.6 hPa | 0 mm | - | - | - |
| 1778069192 | 18.89° C | 32% | 1005.6 hPa | 0 mm | - | - | - |
| 1778068892 | 17.22° C | 34% | 1005.6 hPa | 0 mm | - | - | - |
| 1778068592 | 15.56° C | 38% | 1005.5 hPa | 0 mm | - | - | - |
| 1778068292 | 12.22° C | 39% | 1005.6 hPa | 0 mm | - | - | - |
| 1778067992 | 11.67° C | 38% | 1005.5 hPa | 0 mm | - | - | - |
| 1778067692 | 11.67° C | 36% | 1005.5 hPa | 0 mm | - | - | - |
| 1778067392 | 12.22° C | 35% | 1005.6 hPa | 0 mm | - | - | - |
| 1778067092 | 12.78° C | 33% | 1005.5 hPa | 0 mm | - | - | - |
| 1778066792 | 13.33° C | 32% | 1005.4 hPa | 0 mm | - | - | - |
* Rain latest hour (hover to see other rain measurements)
** Current wind speed in m/s (hover to see current wind gust speed)